createdAt,value
2024-02-29T00:00:40.770Z,85.14
2024-02-29T00:03:10.054Z,85.28
2024-02-29T00:05:38.096Z,85.42
2024-02-29T00:08:05.035Z,85.46
2024-02-29T00:10:31.689Z,85.52
2024-02-29T00:12:58.750Z,85.94
2024-02-29T00:15:25.486Z,85.65
2024-02-29T00:17:52.349Z,85.59
2024-02-29T00:20:19.414Z,86.07
2024-02-29T00:22:47.381Z,85.94
2024-02-29T00:25:13.951Z,86.21
2024-02-29T00:27:43.318Z,86.31
2024-02-29T00:30:11.426Z,85.99
2024-02-29T00:32:38.699Z,86.17
2024-02-29T00:35:06.036Z,86.60
2024-02-29T00:37:32.674Z,86.63
2024-02-29T00:39:59.666Z,85.57
2024-02-29T00:42:26.593Z,86.05
2024-02-29T00:44:53.098Z,86.15
2024-02-29T00:47:19.517Z,86.39
2024-02-29T00:49:46.108Z,86.56
2024-02-29T00:52:12.691Z,86.14
2024-02-29T00:54:39.313Z,84.98
2024-02-29T00:57:06.063Z,85.98
2024-02-29T00:59:32.520Z,85.72
2024-02-29T01:01:59.261Z,86.40
2024-02-29T01:04:25.998Z,86.63
2024-02-29T01:06:52.699Z,85.94
2024-02-29T01:09:20.974Z,86.12
2024-02-29T01:11:49.680Z,86.30
2024-02-29T01:14:16.260Z,86.38
2024-02-29T01:16:42.812Z,86.29
2024-02-29T01:19:09.846Z,86.14
2024-02-29T01:21:36.534Z,86.52
2024-02-29T01:24:03.055Z,86.47
2024-02-29T01:26:29.836Z,86.84
2024-02-29T01:28:57.307Z,87.14
2024-02-29T01:31:23.845Z,87.18
2024-02-29T01:33:50.479Z,87.10
2024-02-29T01:36:16.945Z,86.43
2024-02-29T01:38:43.433Z,87.13
2024-02-29T01:41:10.048Z,86.98
2024-02-29T01:43:36.515Z,87.25
2024-02-29T01:46:21.587Z,87.17
2024-02-29T01:48:49.407Z,86.99
2024-02-29T01:51:18.553Z,86.90
2024-02-29T01:53:45.385Z,87.13
2024-02-29T01:56:14.038Z,87.42
2024-02-29T01:58:44.230Z,86.97
2024-02-29T02:01:11.011Z,87.29
2024-02-29T02:03:39.115Z,86.74
2024-02-29T02:06:05.951Z,87.03
2024-02-29T02:08:33.400Z,86.39
2024-02-29T02:11:00.826Z,86.70
2024-02-29T02:13:27.472Z,86.20
2024-02-29T02:15:54.273Z,86.14
2024-02-29T02:18:20.859Z,86.29
2024-02-29T02:20:47.708Z,85.68
2024-02-29T02:23:14.198Z,85.72
2024-02-29T02:25:40.710Z,86.31
2024-02-29T02:28:07.510Z,86.08
2024-02-29T02:30:34.168Z,85.89
2024-02-29T02:33:00.922Z,86.67
2024-02-29T02:35:27.556Z,86.57
2024-02-29T02:37:53.985Z,86.97
2024-02-29T02:40:20.754Z,86.76
2024-02-29T02:42:47.348Z,86.38
2024-02-29T02:45:14.037Z,86.65
2024-02-29T02:47:40.618Z,87.06
2024-02-29T02:50:07.454Z,86.57
2024-02-29T02:52:34.108Z,87.32
2024-02-29T02:55:00.823Z,86.59
2024-02-29T02:57:27.399Z,87.40
2024-02-29T02:59:54.046Z,86.64
2024-02-29T03:02:20.895Z,87.27
2024-02-29T03:04:47.554Z,87.38
2024-02-29T03:07:14.173Z,87.03
2024-02-29T03:09:40.989Z,86.55
2024-02-29T03:12:08.959Z,86.81
2024-02-29T03:14:35.386Z,87.07
2024-02-29T03:17:02.040Z,86.68
2024-02-29T03:19:28.691Z,86.75
2024-02-29T03:21:55.153Z,87.10
2024-02-29T03:24:22.268Z,86.56
2024-02-29T03:26:48.864Z,86.96
2024-02-29T03:29:15.607Z,87.08
2024-02-29T03:31:45.800Z,86.84
2024-02-29T03:34:12.423Z,86.92
2024-02-29T03:36:39.174Z,87.30
2024-02-29T03:39:06.294Z,87.59
2024-02-29T03:41:33.429Z,87.79
2024-02-29T03:44:00.715Z,87.09
2024-02-29T03:46:27.277Z,87.32
2024-02-29T03:48:53.777Z,87.34
2024-02-29T03:51:20.471Z,87.01
2024-02-29T03:53:47.116Z,87.28
2024-02-29T03:56:13.797Z,86.76
2024-02-29T03:58:40.964Z,86.72
2024-02-29T04:01:11.878Z,86.91
2024-02-29T04:03:40.101Z,86.93
2024-02-29T04:06:10.051Z,86.45
2024-02-29T04:08:37.242Z,87.06
2024-02-29T04:11:04.101Z,86.57
2024-02-29T04:13:30.616Z,86.39
2024-02-29T04:15:57.142Z,86.29
2024-02-29T04:18:23.956Z,86.45
2024-02-29T04:20:51.631Z,87.19
2024-02-29T04:23:18.301Z,87.88
2024-02-29T04:25:46.577Z,87.59
2024-02-29T04:28:15.835Z,88.19
2024-02-29T04:30:43.738Z,88.41
2024-02-29T04:33:12.545Z,88.94
2024-02-29T04:35:39.125Z,89.28
2024-02-29T04:38:05.630Z,89.54
2024-02-29T04:40:32.383Z,89.13
2024-02-29T04:42:59.164Z,89.35
2024-02-29T04:45:28.054Z,88.32
2024-02-29T04:47:55.149Z,88.26
2024-02-29T04:50:22.047Z,88.73
2024-02-29T04:52:48.693Z,88.58
2024-02-29T04:55:15.446Z,89.48
2024-02-29T04:57:42.116Z,89.59
2024-02-29T05:00:11.415Z,88.74
2024-02-29T05:02:38.430Z,88.93
2024-02-29T05:05:07.584Z,88.98
2024-02-29T05:07:35.119Z,88.68
2024-02-29T05:10:02.227Z,88.78
2024-02-29T05:12:29.007Z,88.27
2024-02-29T05:14:55.857Z,88.53
2024-02-29T05:17:22.556Z,88.44
2024-02-29T05:19:49.530Z,88.52
2024-02-29T05:22:16.179Z,88.49
2024-02-29T05:24:43.022Z,88.80
2024-02-29T05:27:09.737Z,88.72
2024-02-29T05:29:36.493Z,89.31
2024-02-29T05:32:03.285Z,89.63
2024-02-29T05:34:29.812Z,89.96
2024-02-29T05:36:59.120Z,89.57
2024-02-29T05:39:25.724Z,89.74
2024-02-29T05:41:52.382Z,89.55
2024-02-29T05:44:19.717Z,89.98
2024-02-29T05:46:46.402Z,89.65
2024-02-29T05:49:13.146Z,89.53
2024-02-29T05:51:39.760Z,89.25
2024-02-29T05:54:06.380Z,89.26
2024-02-29T05:56:32.911Z,89.08
2024-02-29T05:59:00.058Z,88.92
2024-02-29T06:01:29.481Z,89.08
2024-02-29T06:03:56.415Z,89.31
2024-02-29T06:06:25.099Z,89.30
2024-02-29T06:08:51.651Z,89.61
2024-02-29T06:11:19.844Z,89.34
2024-02-29T06:13:46.403Z,88.01
2024-02-29T06:16:14.547Z,88.27
2024-02-29T06:18:43.814Z,88.83
2024-02-29T06:21:10.957Z,89.09
2024-02-29T06:23:37.856Z,89.06
2024-02-29T06:26:04.802Z,88.51
2024-02-29T06:28:31.435Z,88.95
2024-02-29T06:30:58.050Z,88.26
2024-02-29T06:33:24.762Z,87.94
2024-02-29T06:35:51.998Z,88.01
2024-02-29T06:38:18.663Z,87.86
2024-02-29T06:40:46.259Z,88.04
2024-02-29T06:43:12.729Z,87.65
2024-02-29T06:45:46.223Z,89.00
2024-02-29T06:48:12.817Z,88.65
2024-02-29T06:50:39.454Z,88.93
2024-02-29T06:53:06.098Z,88.92
2024-02-29T06:55:33.188Z,88.75
2024-02-29T06:58:00.369Z,88.83
2024-02-29T07:00:27.293Z,87.77
2024-02-29T07:02:53.981Z,87.29
2024-02-29T07:05:20.780Z,86.20
2024-02-29T07:07:47.455Z,86.39
2024-02-29T07:10:14.190Z,87.88
2024-02-29T07:12:41.935Z,88.21
2024-02-29T07:15:09.114Z,89.04
2024-02-29T07:17:35.782Z,89.51
2024-02-29T07:20:04.949Z,89.51
2024-02-29T07:22:32.433Z,89.03
2024-02-29T07:25:02.147Z,88.53
2024-02-29T07:27:28.879Z,87.92
2024-02-29T07:29:55.439Z,86.77
2024-02-29T07:32:22.064Z,87.06
2024-02-29T07:34:48.776Z,87.02
2024-02-29T07:37:15.429Z,87.03
2024-02-29T07:39:42.126Z,86.47
2024-02-29T07:42:10.230Z,86.57
2024-02-29T07:44:36.935Z,87.23
2024-02-29T07:47:03.965Z,87.14
2024-02-29T07:49:33.004Z,86.80
2024-02-29T07:51:59.769Z,86.86
2024-02-29T07:54:26.523Z,86.35
2024-02-29T07:56:53.331Z,84.44
2024-02-29T07:59:20.058Z,84.14
2024-02-29T08:01:46.611Z,84.24
2024-02-29T08:04:13.609Z,83.99
2024-02-29T08:06:40.178Z,83.95
2024-02-29T08:09:09.545Z,83.14
2024-02-29T08:11:37.525Z,80.27
2024-02-29T08:14:04.206Z,80.50
2024-02-29T08:16:30.756Z,81.28
2024-02-29T08:18:57.305Z,82.75
2024-02-29T08:21:23.845Z,81.70
2024-02-29T08:23:50.417Z,80.98
2024-02-29T08:26:16.991Z,79.14
2024-02-29T08:28:44.555Z,80.33
2024-02-29T08:31:13.409Z,80.75
2024-02-29T08:33:40.065Z,81.21
2024-02-29T08:36:06.734Z,81.20
2024-02-29T08:38:35.331Z,78.56
2024-02-29T08:41:03.357Z,76.10
2024-02-29T08:43:30.030Z,79.06
2024-02-29T08:45:56.879Z,78.63
2024-02-29T08:48:24.190Z,77.84
2024-02-29T08:50:50.775Z,75.29
2024-02-29T08:53:17.342Z,75.21
2024-02-29T08:55:43.911Z,75.77
2024-02-29T08:58:11.550Z,77.64
2024-02-29T09:00:38.135Z,80.47
2024-02-29T09:03:05.106Z,79.79
2024-02-29T09:05:34.790Z,79.78
2024-02-29T09:08:01.438Z,79.94
2024-02-29T09:10:28.719Z,74.59
2024-02-29T09:12:55.952Z,73.48
2024-02-29T09:15:22.513Z,73.71
2024-02-29T09:17:48.996Z,75.18
2024-02-29T09:20:15.681Z,75.52
2024-02-29T09:22:42.148Z,73.96
2024-02-29T09:25:09.271Z,71.40
2024-02-29T09:27:35.862Z,70.77
2024-02-29T09:30:02.500Z,73.91
2024-02-29T09:32:30.074Z,75.03
2024-02-29T09:34:56.649Z,75.87
2024-02-29T09:37:23.311Z,74.31
2024-02-29T09:39:49.978Z,75.10
2024-02-29T09:42:17.223Z,75.25
2024-02-29T09:44:44.774Z,74.72
2024-02-29T09:47:13.823Z,75.10
2024-02-29T09:49:41.950Z,72.79
2024-02-29T09:52:09.535Z,72.54
2024-02-29T09:54:40.810Z,73.42
2024-02-29T09:57:13.112Z,76.31
2024-02-29T09:59:43.050Z,75.63
2024-02-29T10:02:15.408Z,75.89
2024-02-29T10:04:41.960Z,75.95
2024-02-29T10:07:08.667Z,77.36
2024-02-29T10:09:35.217Z,75.55
2024-02-29T10:12:03.337Z,74.38
2024-02-29T10:14:32.736Z,72.40
2024-02-29T10:17:00.078Z,69.69
2024-02-29T10:19:26.834Z,69.17
2024-02-29T10:21:53.789Z,69.73
2024-02-29T10:24:21.394Z,68.51
2024-02-29T10:26:48.161Z,68.05
2024-02-29T10:29:17.242Z,68.18
2024-02-29T10:31:44.360Z,68.28
2024-02-29T10:34:12.189Z,64.19
2024-02-29T10:36:39.750Z,64.30
2024-02-29T10:39:06.608Z,63.70
2024-02-29T10:41:33.803Z,63.81
2024-02-29T10:44:07.452Z,64.34
2024-02-29T10:46:36.093Z,61.08
2024-02-29T10:49:12.866Z,60.26
2024-02-29T10:51:55.267Z,62.24
2024-02-29T10:54:29.125Z,61.53
2024-02-29T10:56:56.745Z,61.16
2024-02-29T10:59:24.800Z,60.10
2024-02-29T11:01:59.262Z,61.02
2024-02-29T11:04:27.052Z,62.04
2024-02-29T11:06:54.161Z,60.97
2024-02-29T11:09:28.120Z,61.49
2024-02-29T11:12:23.076Z,60.07
2024-02-29T11:14:50.558Z,56.83
2024-02-29T11:17:18.245Z,55.22
2024-02-29T11:19:54.468Z,54.32
2024-02-29T11:22:35.892Z,55.59
2024-02-29T11:25:12.084Z,54.17
2024-02-29T11:27:47.092Z,53.79
2024-02-29T11:30:18.672Z,54.43
2024-02-29T11:32:45.222Z,55.52
2024-02-29T11:35:12.879Z,54.50
2024-02-29T11:37:40.876Z,51.61
2024-02-29T11:40:09.620Z,51.75
2024-02-29T11:42:37.533Z,53.12
2024-02-29T11:45:04.682Z,53.22
2024-02-29T11:47:31.677Z,50.09
2024-02-29T11:50:02.271Z,47.73
2024-02-29T11:52:28.985Z,45.99
2024-02-29T11:54:55.719Z,45.06
2024-02-29T11:57:24.477Z,45.89
2024-02-29T11:59:53.428Z,47.87
2024-02-29T12:02:21.366Z,48.19
2024-02-29T12:04:49.457Z,45.00
2024-02-29T12:07:17.803Z,47.36
2024-02-29T12:09:45.967Z,46.92
2024-02-29T12:12:13.662Z,44.93
2024-02-29T12:14:41.745Z,43.35
2024-02-29T12:17:09.141Z,43.59
2024-02-29T12:19:36.184Z,43.62
2024-02-29T12:22:04.114Z,44.50
2024-02-29T12:24:32.387Z,44.75
2024-02-29T12:26:59.284Z,45.47
2024-02-29T12:29:25.956Z,46.30
2024-02-29T12:31:52.634Z,45.37
2024-02-29T12:34:19.200Z,43.64
2024-02-29T12:36:47.032Z,43.87
2024-02-29T12:39:19.831Z,44.12
2024-02-29T12:41:46.560Z,43.76
2024-02-29T12:44:13.139Z,44.97
2024-02-29T12:46:39.706Z,45.11
2024-02-29T12:49:08.646Z,45.12
2024-02-29T12:51:35.151Z,46.01
2024-02-29T12:54:01.745Z,45.10
2024-02-29T12:56:28.520Z,45.50
2024-02-29T12:58:54.985Z,45.36
2024-02-29T13:01:21.633Z,45.94
2024-02-29T13:03:48.644Z,46.39
2024-02-29T13:06:15.344Z,47.39
2024-02-29T13:08:42.104Z,47.57
2024-02-29T13:11:08.552Z,47.95
2024-02-29T13:13:35.225Z,48.84
2024-02-29T13:16:02.007Z,48.43
2024-02-29T13:18:28.661Z,49.60
2024-02-29T13:20:55.590Z,50.00
2024-02-29T13:23:22.272Z,50.40
2024-02-29T13:25:49.241Z,49.49
2024-02-29T13:28:16.125Z,49.86
2024-02-29T13:30:42.729Z,49.73
2024-02-29T13:33:09.651Z,48.84
2024-02-29T13:35:36.177Z,48.69
2024-02-29T13:38:02.790Z,48.68
2024-02-29T13:40:29.668Z,48.40
2024-02-29T13:42:56.343Z,48.47
2024-02-29T13:45:22.845Z,47.11
2024-02-29T13:47:51.963Z,47.66
2024-02-29T13:50:20.474Z,48.29
2024-02-29T13:52:47.290Z,47.71
2024-02-29T13:55:13.994Z,48.81
2024-02-29T13:57:41.309Z,48.55
2024-02-29T14:00:09.876Z,47.53
2024-02-29T14:02:36.891Z,47.32
2024-02-29T14:05:07.121Z,47.66
2024-02-29T14:07:34.220Z,47.90
2024-02-29T14:10:00.823Z,47.28
2024-02-29T14:12:28.480Z,46.19
2024-02-29T14:14:55.012Z,46.61
2024-02-29T14:17:21.828Z,46.55
2024-02-29T14:19:48.380Z,46.85
2024-02-29T14:22:15.330Z,47.50
2024-02-29T14:24:42.188Z,47.96
2024-02-29T14:27:08.873Z,47.83
2024-02-29T14:29:38.356Z,48.39
2024-02-29T14:32:05.706Z,47.97
2024-02-29T14:34:35.907Z,48.55
2024-02-29T14:37:05.649Z,48.95
2024-02-29T14:39:34.333Z,49.58
2024-02-29T14:42:00.883Z,49.26
2024-02-29T14:44:27.433Z,49.60
2024-02-29T14:46:55.637Z,49.77
2024-02-29T14:49:22.334Z,50.04
2024-02-29T14:51:49.238Z,50.85
2024-02-29T14:54:15.977Z,51.04
2024-02-29T14:56:44.389Z,51.20
2024-02-29T14:59:11.995Z,52.99
2024-02-29T15:01:38.998Z,52.64
2024-02-29T15:04:05.618Z,52.88
2024-02-29T15:06:32.167Z,53.18
2024-02-29T15:08:58.759Z,53.92
2024-02-29T15:11:27.330Z,54.39
2024-02-29T15:13:54.511Z,54.19
2024-02-29T15:16:21.224Z,54.74
2024-02-29T15:18:48.089Z,55.11
2024-02-29T15:21:14.813Z,55.39
2024-02-29T15:23:41.548Z,55.29
2024-02-29T15:26:11.703Z,55.70
2024-02-29T15:28:42.072Z,55.87
2024-02-29T15:31:09.373Z,55.97
2024-02-29T15:33:36.105Z,56.13
2024-02-29T15:36:02.623Z,57.33
2024-02-29T15:38:29.225Z,57.88
2024-02-29T15:40:56.000Z,56.99
2024-02-29T15:43:22.716Z,56.98
2024-02-29T15:45:49.474Z,56.92
2024-02-29T15:48:16.743Z,57.43
2024-02-29T15:50:43.389Z,57.65
2024-02-29T15:53:09.907Z,57.83
2024-02-29T15:55:36.440Z,58.28
2024-02-29T15:58:05.090Z,58.70
2024-02-29T16:00:32.472Z,58.91
2024-02-29T16:02:59.106Z,59.01
2024-02-29T16:05:28.000Z,59.33
2024-02-29T16:07:56.021Z,59.03
2024-02-29T16:10:22.904Z,59.20
2024-02-29T16:12:49.735Z,60.20
2024-02-29T16:15:16.744Z,60.07
2024-02-29T16:17:43.438Z,60.19
2024-02-29T16:20:11.364Z,60.54
2024-02-29T16:22:37.975Z,60.71
2024-02-29T16:25:05.306Z,60.85
2024-02-29T16:27:32.380Z,61.04
2024-02-29T16:29:58.982Z,61.67
2024-02-29T16:32:25.489Z,61.94
2024-02-29T16:34:51.931Z,61.51
2024-02-29T16:37:18.547Z,62.40
2024-02-29T16:39:45.123Z,62.52
2024-02-29T16:42:11.854Z,62.72
2024-02-29T16:44:38.291Z,63.07
2024-02-29T16:47:05.097Z,62.28
2024-02-29T16:49:31.770Z,63.35
2024-02-29T16:51:58.732Z,63.81
2024-02-29T16:54:25.882Z,63.41
2024-02-29T16:56:52.601Z,64.03
2024-02-29T16:59:19.160Z,63.78
2024-02-29T17:01:45.678Z,64.58
2024-02-29T17:04:12.313Z,64.86
2024-02-29T17:06:39.107Z,65.03
2024-02-29T17:09:06.064Z,65.01
2024-02-29T17:11:33.030Z,65.42
2024-02-29T17:13:59.632Z,65.15
2024-02-29T17:16:26.418Z,65.26
2024-02-29T17:18:53.141Z,65.61
2024-02-29T17:21:21.357Z,65.80
2024-02-29T17:23:47.815Z,66.00
2024-02-29T17:26:18.150Z,66.38
2024-02-29T17:28:44.704Z,66.85
2024-02-29T17:31:11.297Z,67.60
2024-02-29T17:33:41.320Z,67.26
2024-02-29T17:36:07.982Z,67.12
2024-02-29T17:38:34.647Z,67.73
2024-02-29T17:41:01.189Z,67.68
2024-02-29T17:43:27.957Z,68.04
2024-02-29T17:45:54.652Z,68.45
2024-02-29T17:48:21.105Z,68.13
2024-02-29T17:50:47.745Z,68.11
2024-02-29T17:53:14.251Z,68.24
2024-02-29T17:55:40.704Z,68.74
2024-02-29T17:58:07.267Z,68.73
2024-02-29T18:00:33.740Z,69.31
2024-02-29T18:03:01.829Z,68.95
2024-02-29T18:05:29.890Z,69.82
2024-02-29T18:08:02.258Z,69.80
2024-02-29T18:10:30.335Z,69.61
2024-02-29T18:12:58.672Z,69.83
2024-02-29T18:15:26.360Z,70.65
2024-02-29T18:17:53.125Z,69.57
2024-02-29T18:20:20.837Z,69.78
2024-02-29T18:22:47.460Z,70.42
2024-02-29T18:25:14.362Z,70.14
2024-02-29T18:27:40.992Z,70.60
2024-02-29T18:30:11.725Z,70.30
2024-02-29T18:32:38.335Z,70.03
2024-02-29T18:35:09.906Z,70.67
2024-02-29T18:37:38.639Z,71.25
2024-02-29T18:40:05.956Z,71.05
2024-02-29T18:42:32.499Z,72.15
2024-02-29T18:45:01.866Z,71.43
2024-02-29T18:47:28.779Z,71.11
2024-02-29T18:49:55.450Z,71.84
2024-02-29T18:52:21.989Z,71.30
2024-02-29T18:54:50.551Z,72.40
2024-02-29T18:57:17.121Z,72.32
2024-02-29T18:59:43.557Z,73.13
2024-02-29T19:02:10.121Z,73.08
2024-02-29T19:04:37.089Z,73.73
2024-02-29T19:07:03.841Z,73.51
2024-02-29T19:09:32.696Z,74.06
2024-02-29T19:11:59.191Z,73.92
2024-02-29T19:14:26.235Z,73.68
2024-02-29T19:16:55.589Z,73.04
2024-02-29T19:19:22.502Z,74.37
2024-02-29T19:21:49.233Z,74.30
2024-02-29T19:24:15.877Z,74.74
2024-02-29T19:26:44.521Z,74.86
2024-02-29T19:29:11.371Z,74.93
2024-02-29T19:31:40.954Z,75.84
2024-02-29T19:34:08.061Z,75.60
2024-02-29T19:36:34.792Z,76.39
2024-02-29T19:39:01.278Z,76.60
2024-02-29T19:41:28.014Z,76.50
2024-02-29T19:43:54.685Z,76.72
2024-02-29T19:46:21.333Z,76.93
2024-02-29T19:48:47.896Z,77.11
2024-02-29T19:51:15.631Z,78.01
2024-02-29T19:53:44.995Z,78.46
2024-02-29T19:56:12.216Z,78.54
2024-02-29T19:58:39.605Z,78.26
2024-02-29T20:01:07.081Z,78.61
2024-02-29T20:03:33.850Z,78.43
2024-02-29T20:06:01.178Z,78.82
2024-02-29T20:08:27.926Z,79.01
2024-02-29T20:10:54.562Z,79.34
2024-02-29T20:13:21.249Z,78.73
2024-02-29T20:15:48.904Z,78.70
2024-02-29T20:18:17.572Z,78.67
2024-02-29T20:20:44.322Z,79.35
2024-02-29T20:23:11.100Z,79.85
2024-02-29T20:25:37.746Z,79.50
2024-02-29T20:28:04.605Z,79.30
2024-02-29T20:30:31.307Z,80.11
2024-02-29T20:32:57.891Z,80.25
2024-02-29T20:35:24.630Z,79.93
2024-02-29T20:37:51.060Z,79.61
2024-02-29T20:40:18.437Z,80.38
2024-02-29T20:42:45.532Z,80.47
2024-02-29T20:45:15.284Z,80.15
2024-02-29T20:47:44.618Z,80.65
2024-02-29T20:50:11.675Z,80.39
2024-02-29T20:52:38.242Z,80.55
2024-02-29T20:55:05.304Z,81.83
2024-02-29T20:57:33.689Z,80.80
2024-02-29T21:00:00.798Z,79.83
2024-02-29T21:02:29.626Z,80.85
2024-02-29T21:04:59.177Z,80.85
2024-02-29T21:07:26.018Z,80.72
2024-02-29T21:09:53.029Z,81.10
2024-02-29T21:12:19.636Z,80.81
2024-02-29T21:14:46.163Z,81.25
2024-02-29T21:17:13.305Z,81.41
2024-02-29T21:19:40.399Z,81.54
2024-02-29T21:22:07.661Z,82.53
2024-02-29T21:24:34.233Z,82.13
2024-02-29T21:27:00.977Z,81.77
2024-02-29T21:29:27.484Z,82.47
2024-02-29T21:31:53.901Z,81.96
2024-02-29T21:34:21.260Z,81.61
2024-02-29T21:36:48.794Z,82.57
2024-02-29T21:39:18.983Z,81.78
2024-02-29T21:41:48.247Z,82.63
2024-02-29T21:44:14.625Z,82.07
2024-02-29T21:46:41.071Z,82.96
2024-02-29T21:49:07.636Z,82.90
2024-02-29T21:51:34.292Z,82.51
2024-02-29T21:54:00.780Z,82.79
2024-02-29T21:56:27.695Z,82.67
2024-02-29T21:58:54.280Z,82.95
2024-02-29T22:01:21.142Z,82.69
2024-02-29T22:03:47.716Z,82.17
2024-02-29T22:06:14.249Z,82.78
2024-02-29T22:08:43.699Z,83.02
2024-02-29T22:11:10.489Z,83.33
2024-02-29T22:13:38.441Z,82.69
2024-02-29T22:16:05.232Z,83.49
2024-02-29T22:18:32.056Z,82.56
2024-02-29T22:20:58.541Z,82.96
2024-02-29T22:23:25.116Z,83.59
2024-02-29T22:25:51.549Z,83.28
2024-02-29T22:28:18.294Z,83.36
2024-02-29T22:30:46.540Z,83.05
2024-02-29T22:33:14.127Z,83.45
2024-02-29T22:35:40.892Z,83.38
2024-02-29T22:38:07.905Z,84.26
2024-02-29T22:40:34.463Z,84.45
2024-02-29T22:43:00.972Z,83.85
2024-02-29T22:45:27.600Z,84.24
2024-02-29T22:47:54.151Z,84.06
2024-02-29T22:50:20.725Z,84.36
2024-02-29T22:52:47.197Z,84.45
2024-02-29T22:55:13.924Z,84.77
2024-02-29T22:57:40.437Z,84.96
2024-02-29T23:00:24.481Z,84.90
2024-02-29T23:02:51.622Z,85.33
2024-02-29T23:05:18.206Z,85.45
2024-02-29T23:07:47.353Z,84.96
2024-02-29T23:10:15.311Z,84.80
2024-02-29T23:12:45.639Z,85.09
2024-02-29T23:15:12.425Z,84.66
2024-02-29T23:17:40.138Z,85.45
2024-02-29T23:20:07.278Z,85.77
2024-02-29T23:22:34.391Z,85.93
2024-02-29T23:25:00.926Z,85.22
2024-02-29T23:27:27.513Z,84.57
2024-02-29T23:29:53.977Z,84.70
2024-02-29T23:32:20.506Z,85.35
2024-02-29T23:34:46.965Z,85.88
2024-02-29T23:37:13.639Z,85.37
2024-02-29T23:39:40.142Z,85.00
2024-02-29T23:42:06.839Z,85.03
2024-02-29T23:44:33.383Z,83.93
2024-02-29T23:47:00.447Z,85.26
2024-02-29T23:49:27.105Z,85.76
2024-02-29T23:51:53.668Z,85.27
2024-02-29T23:54:20.114Z,84.49
2024-02-29T23:56:46.484Z,85.68
2024-02-29T23:59:13.076Z,86.43
